Time,TemperatureF,DewpointF,PressureIn,WindDirection,WindDirectionDegrees,WindSpeedMPH,WindSpeedGustMPH,Humidity,HourlyPrecipIn,Conditions,Clouds,dailyrainin,SolarRadiationWatts/m^2,SoftwareType,DateUTC
2013-05-10 00:01:00,57.0,32.0,-100.00,West,262,2.0,7.0,38,0.00,,,0.00,0.000000,,2013-05-10 06:01:00,
2013-05-10 00:12:00,57.0,32.0,-100.00,West,262,2.0,7.0,38,0.00,,,0.00,0.000000,,2013-05-10 06:12:00,
2013-05-10 00:21:00,57.0,32.0,-100.00,West,262,2.0,7.0,38,0.00,,,0.00,0.000000,,2013-05-10 06:21:00,
2013-05-10 00:32:00,57.0,32.0,-100.00,West,262,2.0,7.0,38,0.00,,,0.00,0.000000,,2013-05-10 06:32:00,
2013-05-10 01:01:00,55.0,33.0,-100.00,East,90,3.0,4.0,43,0.00,,,0.00,0.000000,,2013-05-10 07:01:00,
2013-05-10 01:11:00,55.0,33.0,-100.00,East,90,3.0,4.0,43,0.00,,,0.00,0.000000,,2013-05-10 07:11:00,
2013-05-10 01:22:00,55.0,33.0,-100.00,East,90,3.0,4.0,43,0.00,,,0.00,0.000000,,2013-05-10 07:22:00,
2013-05-10 01:31:00,55.0,33.0,-100.00,East,90,3.0,4.0,43,0.00,,,0.00,0.000000,,2013-05-10 07:31:00,
2013-05-10 02:02:00,52.0,33.0,-100.00,ESE,119,1.0,6.0,48,0.00,,,0.00,0.000000,,2013-05-10 08:02:00,
2013-05-10 02:12:00,52.0,33.0,-100.00,ESE,119,1.0,6.0,48,0.00,,,0.00,0.000000,,2013-05-10 08:12:00,
2013-05-10 02:21:00,52.0,33.0,-100.00,ESE,119,1.0,6.0,48,0.00,,,0.00,0.000000,,2013-05-10 08:21:00,
2013-05-10 02:32:00,52.0,33.0,-100.00,ESE,119,1.0,6.0,48,0.00,,,0.00,0.000000,,2013-05-10 08:32:00,
2013-05-10 03:01:00,51.0,34.0,-100.00,NNE,23,1.0,3.0,51,0.00,,,0.00,0.000000,,2013-05-10 09:01:00,
2013-05-10 03:11:00,51.0,34.0,-100.00,NNE,23,1.0,3.0,51,0.00,,,0.00,0.000000,,2013-05-10 09:11:00,
2013-05-10 04:02:00,49.0,34.0,-100.00,ESE,114,2.0,4.0,57,-99.99,,,0.00,0.000000,,2013-05-10 10:02:00,
2013-05-10 05:02:00,47.0,34.0,-100.00,East,91,4.0,6.0,61,-99.99,,,-99.99,0.000000,,2013-05-10 11:02:00,
2013-05-10 05:12:00,47.0,34.0,-100.00,East,91,4.0,6.0,61,-99.99,,,-99.99,0.000000,,2013-05-10 11:12:00,
2013-05-10 08:02:00,48.0,36.0,-100.00,East,86,3.0,5.0,63,-99.99,,,0.00,69.000000,,2013-05-10 14:02:00,
2013-05-10 09:01:00,51.0,37.0,-100.00,East,96,3.0,4.0,58,-99.99,,,-99.99,239.000000,,2013-05-10 15:01:00,
2013-05-10 09:20:00,-999.0,-99.9,-100.00,East,96,3.0,4.0,58,-99.99,,,-99.99,239.000000,,2013-05-10 15:20:00,
2013-05-10 09:32:00,51.0,37.0,-100.00,East,96,3.0,4.0,58,-99.99,,,-99.99,239.000000,,2013-05-10 15:32:00,
2013-05-10 10:02:00,55.0,38.0,-100.00,SW,236,0.0,7.0,52,0.00,,,0.00,425.000000,,2013-05-10 16:02:00,
2013-05-10 10:12:00,55.0,38.0,-100.00,SW,236,0.0,7.0,52,0.00,,,0.00,425.000000,,2013-05-10 16:12:00,
2013-05-10 10:23:00,55.0,38.0,-100.00,SW,236,0.0,7.0,52,0.00,,,0.00,425.000000,,2013-05-10 16:23:00,
2013-05-10 10:32:00,55.0,38.0,-100.00,SW,236,0.0,7.0,52,0.00,,,0.00,425.000000,,2013-05-10 16:32:00,
2013-05-10 11:02:00,62.0,39.0,-100.00,South,172,1.0,5.0,43,0.00,,,0.00,606.000000,,2013-05-10 17:02:00,
2013-05-10 11:12:00,62.0,39.0,-100.00,South,172,1.0,5.0,43,0.00,,,0.00,606.000000,,2013-05-10 17:12:00,
2013-05-10 11:21:00,62.0,39.0,-100.00,South,172,1.0,5.0,43,0.00,,,0.00,606.000000,,2013-05-10 17:21:00,
2013-05-10 11:32:00,62.0,39.0,-100.00,South,172,1.0,5.0,43,0.00,,,0.00,606.000000,,2013-05-10 17:32:00,
2013-05-10 12:10:00,-999.0,-99.9,-100.00,NW,311,4.0,7.0,35,0.00,,,0.00,757.000000,,2013-05-10 18:10:00,
2013-05-10 12:21:00,67.0,38.0,-100.00,NW,311,4.0,7.0,35,0.00,,,0.00,757.000000,,2013-05-10 18:21:00,
2013-05-10 12:34:00,67.0,38.0,-100.00,NW,311,4.0,7.0,35,0.00,,,0.00,757.000000,,2013-05-10 18:34:00,
2013-05-10 13:02:00,70.0,32.0,-100.00,NW,326,8.0,15.0,24,0.00,,,0.00,868.000000,,2013-05-10 19:02:00,
2013-05-10 13:11:00,70.0,32.0,-100.00,NW,326,8.0,15.0,24,0.00,,,0.00,868.000000,,2013-05-10 19:11:00,
2013-05-10 13:21:00,70.0,32.0,-100.00,NW,326,8.0,15.0,24,0.00,,,0.00,868.000000,,2013-05-10 19:21:00,
2013-05-10 13:32:00,70.0,32.0,-100.00,NW,326,8.0,15.0,24,0.00,,,0.00,868.000000,,2013-05-10 19:32:00,
2013-05-10 14:01:00,74.0,30.0,-100.00,WNW,284,6.0,13.0,20,0.00,,,0.00,926.000000,,2013-05-10 20:01:00,
2013-05-10 14:12:00,74.0,30.0,-100.00,WNW,284,6.0,13.0,20,0.00,,,0.00,926.000000,,2013-05-10 20:12:00,
2013-05-10 14:21:00,74.0,30.0,-100.00,WNW,284,6.0,13.0,20,0.00,,,0.00,926.000000,,2013-05-10 20:21:00,
2013-05-10 14:31:00,74.0,30.0,-100.00,WNW,284,6.0,13.0,20,0.00,,,0.00,926.000000,,2013-05-10 20:31:00,
2013-05-10 15:01:00,75.0,29.0,-100.00,WNW,294,7.0,16.0,18,0.00,,,0.00,939.000000,,2013-05-10 21:01:00,
2013-05-10 15:11:00,75.0,29.0,-100.00,WNW,294,7.0,16.0,18,0.00,,,0.00,939.000000,,2013-05-10 21:11:00,
2013-05-10 15:24:00,75.0,29.0,-100.00,WNW,294,7.0,16.0,18,0.00,,,0.00,939.000000,,2013-05-10 21:24:00,
2013-05-10 15:32:00,75.0,29.0,-100.00,WNW,294,7.0,16.0,18,0.00,,,0.00,939.000000,,2013-05-10 21:32:00,
2013-05-10 16:02:00,78.0,28.0,-100.00,WNW,291,5.0,12.0,16,0.00,,,0.00,919.000000,,2013-05-10 22:02:00,
2013-05-10 16:12:00,78.0,28.0,-100.00,WNW,291,5.0,12.0,16,0.00,,,0.00,919.000000,,2013-05-10 22:12:00,
2013-05-10 16:22:00,78.0,28.0,-100.00,WNW,291,5.0,12.0,16,0.00,,,0.00,919.000000,,2013-05-10 22:22:00,
2013-05-10 16:32:00,78.0,28.0,-100.00,WNW,291,5.0,12.0,16,0.00,,,0.00,919.000000,,2013-05-10 22:32:00,
2013-05-10 17:02:00,79.0,26.0,-100.00,NNW,342,4.0,15.0,14,0.00,,,0.00,839.000000,,2013-05-10 23:02:00,
2013-05-10 17:12:00,79.0,26.0,-100.00,NNW,342,4.0,15.0,14,0.00,,,0.00,839.000000,,2013-05-10 23:12:00,
2013-05-10 17:22:00,79.0,26.0,-100.00,NNW,342,4.0,15.0,14,0.00,,,0.00,839.000000,,2013-05-10 23:22:00,
2013-05-10 17:32:00,79.0,26.0,-100.00,NNW,342,4.0,15.0,14,0.00,,,0.00,839.000000,,2013-05-10 23:32:00,
2013-05-10 18:01:00,77.0,26.0,-100.00,WNW,300,7.0,16.0,15,0.00,,,0.00,568.000000,,2013-05-11 00:01:00,
2013-05-10 18:11:00,77.0,26.0,-100.00,WNW,300,7.0,16.0,15,0.00,,,0.00,568.000000,,2013-05-11 00:11:00,
2013-05-10 18:21:00,77.0,26.0,-100.00,WNW,300,7.0,16.0,15,0.00,,,0.00,568.000000,,2013-05-11 00:21:00,
2013-05-10 18:32:00,77.0,26.0,-100.00,WNW,300,7.0,16.0,15,0.00,,,0.00,568.000000,,2013-05-11 00:32:00,
2013-05-10 19:01:00,78.0,23.0,-100.00,NW,308,6.0,15.0,13,0.00,,,0.00,502.000000,,2013-05-11 01:01:00,
2013-05-10 19:11:00,78.0,23.0,-100.00,NW,308,6.0,15.0,13,0.00,,,0.00,502.000000,,2013-05-11 01:11:00,
2013-05-10 19:21:00,78.0,23.0,-100.00,NW,308,6.0,15.0,13,0.00,,,0.00,502.000000,,2013-05-11 01:21:00,
2013-05-10 19:31:00,78.0,23.0,-100.00,NW,308,6.0,15.0,13,0.00,,,0.00,502.000000,,2013-05-11 01:31:00,
2013-05-10 20:02:00,74.0,25.0,-100.00,WNW,300,8.0,16.0,16,0.00,,,0.00,277.000000,,2013-05-11 02:02:00,
2013-05-10 20:11:00,74.0,25.0,-100.00,WNW,300,8.0,16.0,16,0.00,,,0.00,277.000000,,2013-05-11 02:11:00,
2013-05-10 20:21:00,74.0,25.0,-100.00,WNW,300,8.0,16.0,16,0.00,,,0.00,277.000000,,2013-05-11 02:21:00,
2013-05-10 20:32:00,74.0,25.0,-100.00,WNW,300,8.0,16.0,16,0.00,,,0.00,277.000000,,2013-05-11 02:32:00,
2013-05-10 21:01:00,69.0,29.0,-100.00,WNW,299,7.0,17.0,22,0.00,,,0.00,129.000000,,2013-05-11 03:01:00,
2013-05-10 21:11:00,69.0,29.0,-100.00,WNW,299,7.0,17.0,22,0.00,,,0.00,129.000000,,2013-05-11 03:11:00,
2013-05-10 21:21:00,69.0,29.0,-100.00,WNW,299,7.0,17.0,22,0.00,,,0.00,129.000000,,2013-05-11 03:21:00,
2013-05-10 21:32:00,69.0,29.0,-100.00,WNW,299,7.0,17.0,22,0.00,,,0.00,129.000000,,2013-05-11 03:32:00,
2013-05-10 22:02:00,65.0,29.0,-100.00,WNW,298,4.0,12.0,26,0.00,,,-99.99,4.000000,,2013-05-11 04:02:00,
2013-05-10 22:12:00,65.0,29.0,-100.00,WNW,298,4.0,12.0,26,0.00,,,-99.99,4.000000,,2013-05-11 04:12:00,
2013-05-10 22:23:00,65.0,29.0,-100.00,WNW,298,4.0,12.0,26,0.00,,,-99.99,4.000000,,2013-05-11 04:23:00,
2013-05-10 22:32:00,65.0,29.0,-100.00,WNW,298,4.0,12.0,26,0.00,,,-99.99,4.000000,,2013-05-11 04:32:00,
2013-05-10 23:02:00,61.0,29.0,-100.00,North,7,1.0,6.0,30,0.00,,,0.00,0.000000,,2013-05-11 05:02:00,
2013-05-10 23:12:00,61.0,29.0,-100.00,North,7,1.0,6.0,30,0.00,,,0.00,0.000000,,2013-05-11 05:12:00,
2013-05-10 23:21:00,61.0,29.0,-100.00,North,7,1.0,6.0,30,0.00,,,0.00,0.000000,,2013-05-11 05:21:00,
2013-05-10 23:32:00,61.0,29.0,-100.00,North,7,1.0,6.0,30,0.00,,,0.00,0.000000,,2013-05-11 05:32:00,